New Ashford, Massachusetts
Current Conditions -  °F | °C
As of 12:52 PM on Monday 22 Dec 2014 (Local Time) from KAQW Reporting Station
Overcast Overcast  
Wind Chill: 31°   Ceiling: 4000
Heat Index: 37°   Visibility: 10mi
Dew Point: 30°   Wind: 8mph
Humidity: 76%   Direction: 80°E
Pressure: 30.29"   Gusts: NA
Location:  42.5714°N, 73.2564°W
Report Text: KAQW 221752Z AUTO 08007KT 10SM OVC040 03/M01 A3029 RMK AO2 SLP264 60000 T00281011 10028 21022 58016
Loading
Personal Weather Stations






























Interactive Weather Map New forecast layout! Learn more

10-Day Weather Forecast

Advertisements
Track Severe Weather on mobile